createdAt,value
2023-06-16T00:00:03.435Z,213.16
2023-06-16T00:01:03.393Z,213.48
2023-06-16T00:02:03.394Z,213.28
2023-06-16T00:03:03.436Z,212.55
2023-06-16T00:04:03.413Z,212.83
2023-06-16T00:05:03.363Z,212.63
2023-06-16T00:06:03.366Z,213.08
2023-06-16T00:07:03.369Z,212.60
2023-06-16T00:08:03.422Z,213.09
2023-06-16T00:09:03.345Z,211.78
2023-06-16T00:10:03.333Z,212.94
2023-06-16T00:11:03.332Z,213.05
2023-06-16T00:12:03.329Z,211.98
2023-06-16T00:13:03.331Z,212.26
2023-06-16T00:14:03.312Z,211.10
2023-06-16T00:15:03.322Z,212.15
2023-06-16T00:16:03.302Z,212.44
2023-06-16T00:17:03.292Z,213.13
2023-06-16T00:18:03.339Z,210.98
2023-06-16T00:19:03.280Z,211.95
2023-06-16T00:20:03.282Z,211.50
2023-06-16T00:21:03.278Z,211.12
2023-06-16T00:22:03.267Z,211.33
2023-06-16T00:23:03.345Z,211.62
2023-06-16T00:24:03.293Z,211.09
2023-06-16T00:25:03.260Z,211.68
2023-06-16T00:26:03.267Z,211.50
2023-06-16T00:27:03.265Z,211.25
2023-06-16T00:28:03.276Z,211.58
2023-06-16T00:29:03.295Z,211.92
2023-06-16T00:30:03.335Z,211.17
2023-06-16T00:31:03.285Z,211.64
2023-06-16T00:32:03.293Z,211.88
2023-06-16T00:33:03.369Z,211.31
2023-06-16T00:34:03.337Z,211.28
2023-06-16T00:35:03.319Z,211.34
2023-06-16T00:36:03.326Z,211.81
2023-06-16T00:37:03.395Z,211.28
2023-06-16T00:38:03.337Z,211.02
2023-06-16T00:39:03.356Z,209.64
2023-06-16T00:40:03.383Z,211.35
2023-06-16T00:41:03.352Z,211.76
2023-06-16T00:42:03.366Z,211.59
2023-06-16T00:43:03.405Z,211.71
2023-06-16T00:44:03.383Z,211.23
2023-06-16T00:45:03.391Z,210.75
2023-06-16T00:46:03.380Z,211.30
2023-06-16T00:47:03.412Z,211.24
2023-06-16T00:48:03.476Z,210.92
2023-06-16T00:49:03.464Z,211.69
2023-06-16T00:50:03.445Z,210.19
2023-06-16T00:51:03.566Z,211.94
2023-06-16T00:52:03.493Z,210.48
2023-06-16T00:53:03.429Z,210.09
2023-06-16T00:54:03.437Z,210.01
2023-06-16T00:55:03.443Z,210.38
2023-06-16T00:56:03.564Z,210.34
2023-06-16T00:57:03.460Z,209.90
2023-06-16T00:58:03.478Z,211.34
2023-06-16T00:59:03.531Z,210.25
2023-06-16T01:00:03.494Z,210.34
2023-06-16T01:01:03.572Z,209.03
2023-06-16T01:02:03.589Z,209.89
2023-06-16T01:03:03.583Z,209.70
2023-06-16T01:04:03.519Z,209.28
2023-06-16T01:05:03.535Z,210.58
2023-06-16T01:06:03.533Z,210.38
2023-06-16T01:07:03.530Z,208.52
2023-06-16T01:08:03.598Z,209.31
2023-06-16T01:09:03.551Z,209.03
2023-06-16T01:10:03.558Z,209.53
2023-06-16T01:11:03.561Z,209.57
2023-06-16T01:12:03.566Z,209.22
2023-06-16T01:13:03.582Z,208.36
2023-06-16T01:14:03.589Z,208.80
2023-06-16T01:15:03.588Z,209.25
2023-06-16T01:16:03.624Z,208.89
2023-06-16T01:17:03.634Z,209.21
2023-06-16T01:18:03.664Z,208.40
2023-06-16T01:19:04.074Z,209.89
2023-06-16T01:20:03.666Z,208.49
2023-06-16T01:21:03.629Z,208.38
2023-06-16T01:22:03.642Z,207.64
2023-06-16T01:23:03.639Z,207.65
2023-06-16T01:24:03.782Z,209.07
2023-06-16T01:25:03.666Z,210.02
2023-06-16T01:26:03.672Z,208.51
2023-06-16T01:27:03.671Z,208.58
2023-06-16T01:28:03.695Z,208.15
2023-06-16T01:29:03.688Z,207.94
2023-06-16T01:30:03.699Z,208.49
2023-06-16T01:31:03.718Z,207.85
2023-06-16T01:32:03.731Z,208.50
2023-06-16T01:33:03.785Z,207.17
2023-06-16T01:34:03.800Z,208.25
2023-06-16T01:35:03.740Z,207.82
2023-06-16T01:36:03.752Z,207.56
2023-06-16T01:37:03.750Z,207.88
2023-06-16T01:38:03.757Z,208.26
2023-06-16T01:39:03.767Z,207.79
2023-06-16T01:40:03.768Z,207.88
2023-06-16T01:41:03.774Z,207.05
2023-06-16T01:42:03.859Z,206.75
2023-06-16T01:43:03.787Z,207.90
2023-06-16T01:44:03.803Z,207.11
2023-06-16T01:45:03.885Z,207.84
2023-06-16T01:46:03.984Z,207.21
2023-06-16T01:47:03.974Z,207.70
2023-06-16T01:48:03.885Z,208.18
2023-06-16T01:49:03.853Z,205.92
2023-06-16T01:50:03.838Z,207.24
2023-06-16T01:51:03.939Z,208.34
2023-06-16T01:52:03.869Z,207.94
2023-06-16T01:53:03.945Z,207.38
2023-06-16T01:54:03.897Z,206.38
2023-06-16T01:55:03.867Z,206.02
2023-06-16T01:56:03.882Z,206.47
2023-06-16T01:57:03.875Z,206.71
2023-06-16T01:58:03.896Z,208.38
2023-06-16T01:59:03.903Z,206.45
2023-06-16T02:00:03.905Z,207.09
2023-06-16T02:01:03.893Z,206.03
2023-06-16T02:02:03.902Z,206.48
2023-06-16T02:03:04.026Z,206.59
2023-06-16T02:04:03.952Z,206.39
2023-06-16T02:05:03.919Z,205.82
2023-06-16T02:06:03.922Z,206.93
2023-06-16T02:07:03.935Z,206.41
2023-06-16T02:08:03.949Z,206.52
2023-06-16T02:09:03.953Z,206.26
2023-06-16T02:10:03.944Z,205.74
2023-06-16T02:11:03.957Z,205.55
2023-06-16T02:12:03.951Z,206.00
2023-06-16T02:13:03.954Z,205.20
2023-06-16T02:14:03.969Z,204.95
2023-06-16T02:15:03.963Z,205.20
2023-06-16T02:16:04.216Z,205.66
2023-06-16T02:17:03.977Z,206.64
2023-06-16T02:18:04.189Z,206.11
2023-06-16T02:19:04.044Z,205.75
2023-06-16T02:20:04.052Z,205.49
2023-06-16T02:21:04.075Z,204.98
2023-06-16T02:22:04.011Z,204.41
2023-06-16T02:23:04.062Z,204.88
2023-06-16T02:24:04.031Z,205.07
2023-06-16T02:25:04.034Z,205.31
2023-06-16T02:26:04.034Z,204.29
2023-06-16T02:27:04.020Z,204.42
2023-06-16T02:28:04.015Z,205.27
2023-06-16T02:29:04.033Z,204.56
2023-06-16T02:30:04.040Z,204.54
2023-06-16T02:31:04.097Z,204.74
2023-06-16T02:32:04.058Z,204.33
2023-06-16T02:33:04.092Z,204.05
2023-06-16T02:34:04.083Z,204.20
2023-06-16T02:35:04.169Z,204.47
2023-06-16T02:36:04.090Z,203.08
2023-06-16T02:37:04.133Z,203.87
2023-06-16T02:38:04.120Z,203.79
2023-06-16T02:39:04.139Z,204.32
2023-06-16T02:40:04.150Z,203.24
2023-06-16T02:41:04.174Z,203.16
2023-06-16T02:42:04.167Z,205.56
2023-06-16T02:43:04.184Z,204.33
2023-06-16T02:44:04.200Z,203.81
2023-06-16T02:45:04.210Z,203.32
2023-06-16T02:46:04.218Z,203.14
2023-06-16T02:47:04.362Z,203.23
2023-06-16T02:48:04.271Z,203.30
2023-06-16T02:49:04.261Z,204.62
2023-06-16T02:50:04.299Z,202.80
2023-06-16T02:51:04.297Z,203.60
2023-06-16T02:52:04.302Z,204.03
2023-06-16T02:53:04.315Z,203.06
2023-06-16T02:54:04.328Z,203.52
2023-06-16T02:55:04.343Z,202.50
2023-06-16T02:56:04.352Z,203.37
2023-06-16T02:57:04.353Z,201.97
2023-06-16T02:58:04.358Z,201.79
2023-06-16T02:59:04.382Z,204.04
2023-06-16T03:00:04.403Z,203.40
2023-06-16T03:01:04.426Z,201.94
2023-06-16T03:02:04.482Z,202.77
2023-06-16T03:03:04.477Z,202.51
2023-06-16T03:04:04.434Z,203.62
2023-06-16T03:05:04.429Z,203.85
2023-06-16T03:06:04.431Z,202.77
2023-06-16T03:07:04.435Z,201.45
2023-06-16T03:08:04.525Z,202.07
2023-06-16T03:09:04.450Z,203.43
2023-06-16T03:10:04.469Z,202.61
2023-06-16T03:11:04.474Z,201.73
2023-06-16T03:12:04.557Z,201.91
2023-06-16T03:13:04.493Z,202.57
2023-06-16T03:14:04.489Z,203.05
2023-06-16T03:15:04.503Z,201.71
2023-06-16T03:16:04.519Z,202.07
2023-06-16T03:17:04.610Z,202.35
2023-06-16T03:18:04.615Z,203.42
2023-06-16T03:19:04.553Z,203.47
2023-06-16T03:20:04.583Z,202.92
2023-06-16T03:21:04.581Z,203.89
2023-06-16T03:22:04.598Z,203.59
2023-06-16T03:23:04.607Z,201.33
2023-06-16T03:24:04.664Z,203.11
2023-06-16T03:25:04.709Z,201.18
2023-06-16T03:26:04.650Z,201.61
2023-06-16T03:27:04.690Z,200.63
2023-06-16T03:28:04.697Z,201.34
2023-06-16T03:29:04.680Z,201.84
2023-06-16T03:30:04.720Z,200.95
2023-06-16T03:31:04.703Z,202.19
2023-06-16T03:32:04.711Z,201.60
2023-06-16T03:33:04.784Z,201.84
2023-06-16T03:34:19.341Z,202.12
2023-06-16T03:35:05.733Z,202.13
2023-06-16T03:36:04.719Z,201.57
2023-06-16T03:37:04.790Z,202.73
2023-06-16T03:38:04.706Z,201.73
2023-06-16T03:39:04.703Z,201.73
2023-06-16T03:40:04.688Z,201.31
2023-06-16T03:41:04.744Z,200.87
2023-06-16T03:42:04.683Z,201.25
2023-06-16T03:43:04.737Z,202.95
2023-06-16T03:44:04.666Z,201.01
2023-06-16T03:45:04.673Z,201.01
2023-06-16T03:46:04.660Z,199.88
2023-06-16T03:47:04.646Z,200.47
2023-06-16T03:48:04.673Z,200.13
2023-06-16T03:49:04.692Z,200.29
2023-06-16T03:50:04.633Z,199.11
2023-06-16T03:51:04.630Z,199.31
2023-06-16T03:52:04.624Z,199.07
2023-06-16T03:54:04.600Z,200.01
2023-06-16T03:55:04.614Z,199.68
2023-06-16T03:56:04.599Z,198.98
2023-06-16T03:57:04.588Z,199.32
2023-06-16T03:58:04.594Z,200.39
2023-06-16T03:59:04.568Z,198.07
2023-06-16T04:00:04.570Z,200.63
2023-06-16T04:01:04.609Z,199.11
2023-06-16T04:02:04.557Z,198.42
2023-06-16T04:03:04.685Z,198.43
2023-06-16T04:04:04.573Z,198.00
2023-06-16T04:05:04.542Z,197.39
2023-06-16T04:06:04.545Z,198.83
2023-06-16T04:07:04.534Z,197.85
2023-06-16T04:08:04.573Z,197.19
2023-06-16T04:09:04.519Z,196.88
2023-06-16T04:10:04.498Z,197.97
2023-06-16T04:11:04.499Z,198.27
2023-06-16T04:12:04.485Z,197.93
2023-06-16T04:13:04.484Z,197.06
2023-06-16T04:14:04.474Z,195.66
2023-06-16T04:15:04.483Z,196.98
2023-06-16T04:16:04.466Z,197.26
2023-06-16T04:17:04.470Z,198.01
2023-06-16T04:18:04.482Z,197.64
2023-06-16T04:19:04.461Z,196.81
2023-06-16T04:20:04.447Z,195.87
2023-06-16T04:21:04.444Z,196.38
2023-06-16T04:22:04.425Z,197.33
2023-06-16T04:23:04.421Z,197.18
2023-06-16T04:24:04.439Z,197.27
2023-06-16T04:25:04.410Z,197.00
2023-06-16T04:26:04.414Z,196.64
2023-06-16T04:27:04.416Z,197.38
2023-06-16T04:28:04.443Z,194.98
2023-06-16T04:29:04.366Z,197.02
2023-06-16T04:30:04.371Z,197.46
2023-06-16T04:31:04.361Z,196.79
2023-06-16T04:32:04.354Z,197.70
2023-06-16T04:33:04.369Z,196.79
2023-06-16T04:34:04.377Z,198.56
2023-06-16T04:35:04.339Z,196.32
2023-06-16T04:36:04.342Z,196.17
2023-06-16T04:37:04.324Z,198.07
2023-06-16T04:38:04.328Z,196.33
2023-06-16T04:39:04.379Z,198.02
2023-06-16T04:40:15.595Z,196.75
2023-06-16T04:41:05.312Z,196.92
2023-06-16T04:42:04.301Z,197.14
2023-06-16T04:43:04.288Z,197.86
2023-06-16T04:44:04.277Z,197.53
2023-06-16T04:45:04.287Z,197.96
2023-06-16T04:46:04.343Z,196.49
2023-06-16T04:47:04.268Z,197.44
2023-06-16T04:48:04.356Z,196.62
2023-06-16T04:49:04.312Z,198.26
2023-06-16T04:50:04.273Z,198.48
2023-06-16T04:51:04.257Z,195.93
2023-06-16T04:52:04.238Z,196.25
2023-06-16T04:53:04.283Z,196.54
2023-06-16T04:54:04.223Z,197.08
2023-06-16T04:55:04.222Z,195.76
2023-06-16T04:56:04.221Z,195.50
2023-06-16T04:57:04.672Z,195.83
2023-06-16T04:58:05.166Z,196.10
2023-06-16T04:59:04.191Z,196.55
2023-06-16T05:00:04.175Z,198.45
2023-06-16T05:01:04.188Z,196.99
2023-06-16T05:02:04.195Z,196.06
2023-06-16T05:03:04.317Z,196.29
2023-06-16T05:04:04.278Z,196.26
2023-06-16T05:05:04.151Z,196.53
2023-06-16T05:06:04.142Z,197.03
2023-06-16T05:07:04.138Z,196.44
2023-06-16T05:08:04.132Z,195.47
2023-06-16T05:09:04.216Z,195.82
2023-06-16T05:10:04.137Z,195.83
2023-06-16T05:11:04.147Z,197.26
2023-06-16T05:12:04.163Z,195.82
2023-06-16T05:13:04.170Z,196.67
2023-06-16T05:14:04.195Z,196.16
2023-06-16T05:15:04.188Z,195.15
2023-06-16T05:16:04.205Z,196.24
2023-06-16T05:17:04.280Z,195.20
2023-06-16T05:18:04.346Z,195.13
2023-06-16T05:19:04.326Z,194.68
2023-06-16T05:20:04.224Z,194.82
2023-06-16T05:21:04.237Z,186.27
2023-06-16T05:22:04.296Z,170.23
2023-06-16T05:23:05.177Z,152.51
2023-06-16T05:24:04.320Z,142.57
2023-06-16T05:25:04.328Z,136.69
2023-06-16T05:26:04.427Z,131.65
2023-06-16T05:27:04.370Z,131.34
2023-06-16T05:28:04.428Z,128.25
2023-06-16T05:29:04.374Z,129.91
2023-06-16T05:30:04.421Z,134.16
2023-06-16T05:31:04.582Z,137.91
2023-06-16T05:32:04.542Z,131.82
2023-06-16T05:33:05.212Z,127.60
2023-06-16T05:34:04.662Z,122.51
2023-06-16T05:35:04.711Z,123.35
2023-06-16T05:36:05.682Z,123.83
2023-06-16T05:37:04.822Z,122.58
2023-06-16T05:38:04.877Z,124.20
2023-06-16T05:39:05.691Z,121.39
2023-06-16T05:40:04.959Z,123.89
2023-06-16T05:41:05.000Z,127.14
2023-06-16T05:42:05.044Z,126.98
2023-06-16T05:43:05.077Z,128.84
2023-06-16T05:44:05.111Z,129.13
2023-06-16T05:45:05.148Z,127.94
2023-06-16T05:46:05.183Z,128.06
2023-06-16T05:47:05.224Z,129.89
2023-06-16T05:48:05.327Z,134.06
2023-06-16T05:49:05.309Z,138.84
2023-06-16T05:50:05.308Z,140.12
2023-06-16T05:51:05.334Z,143.59
2023-06-16T05:52:05.404Z,147.11
2023-06-16T05:53:05.366Z,147.98
2023-06-16T05:54:05.420Z,150.68
2023-06-16T05:55:05.489Z,149.87
2023-06-16T05:56:05.422Z,154.24
2023-06-16T05:57:05.446Z,155.39
2023-06-16T05:58:05.492Z,160.10
2023-06-16T05:59:05.526Z,161.36
2023-06-16T06:00:05.486Z,162.28
2023-06-16T06:01:05.499Z,166.23
2023-06-16T06:02:05.528Z,165.81
2023-06-16T06:03:05.767Z,170.22
2023-06-16T06:04:05.626Z,173.57
2023-06-16T06:05:05.517Z,175.41
2023-06-16T06:06:05.531Z,180.34
2023-06-16T06:07:05.531Z,181.38
2023-06-16T06:08:05.715Z,185.11
2023-06-16T06:09:05.620Z,187.69
2023-06-16T06:10:05.557Z,189.41
2023-06-16T06:11:05.551Z,181.26
2023-06-16T06:12:05.567Z,180.17
2023-06-16T06:13:05.554Z,176.54
2023-06-16T06:14:05.562Z,176.58
2023-06-16T06:15:05.623Z,174.74
2023-06-16T06:16:05.624Z,176.16
2023-06-16T06:17:05.579Z,179.12
2023-06-16T06:18:05.600Z,180.70
2023-06-16T06:19:05.581Z,182.29
2023-06-16T06:20:05.568Z,179.38
2023-06-16T06:21:05.569Z,179.29
2023-06-16T06:22:05.566Z,174.12
2023-06-16T06:23:05.570Z,173.78
2023-06-16T06:24:05.604Z,170.95
2023-06-16T06:25:05.590Z,171.48
2023-06-16T06:26:05.594Z,170.06
2023-06-16T06:27:05.599Z,171.65
2023-06-16T06:28:05.605Z,170.93
2023-06-16T06:29:07.401Z,173.02
2023-06-16T06:30:06.215Z,170.66
2023-06-16T06:31:05.641Z,170.50
2023-06-16T06:32:05.636Z,166.39
2023-06-16T06:33:05.651Z,167.27
2023-06-16T06:34:05.679Z,168.46
2023-06-16T06:35:05.645Z,164.52
2023-06-16T06:36:05.643Z,161.44
2023-06-16T06:37:05.646Z,159.29
2023-06-16T06:38:05.736Z,157.15
2023-06-16T06:39:05.652Z,154.28
2023-06-16T06:40:05.685Z,152.29
2023-06-16T06:41:05.665Z,148.09
2023-06-16T06:42:05.673Z,146.39
2023-06-16T06:43:05.710Z,146.71
2023-06-16T06:44:05.692Z,141.68
2023-06-16T06:45:05.768Z,140.64
2023-06-16T06:46:05.736Z,137.63
2023-06-16T06:47:05.724Z,134.61
2023-06-16T06:48:05.824Z,133.55
2023-06-16T06:49:05.713Z,131.75
2023-06-16T06:50:05.729Z,131.61
2023-06-16T06:51:05.754Z,127.47
2023-06-16T06:52:05.751Z,129.71
2023-06-16T06:53:05.760Z,127.46
2023-06-16T06:54:05.768Z,125.66
2023-06-16T06:55:05.771Z,122.98
2023-06-16T06:56:05.775Z,121.32
2023-06-16T06:57:05.854Z,121.38
2023-06-16T06:58:05.790Z,117.76
2023-06-16T06:59:05.788Z,113.87
2023-06-16T07:00:05.793Z,115.25
2023-06-16T07:01:05.809Z,111.59
2023-06-16T07:02:05.901Z,108.60
2023-06-16T07:03:05.857Z,105.14
2023-06-16T07:04:05.929Z,101.39
2023-06-16T07:05:05.886Z,101.05
2023-06-16T07:06:07.139Z,95.46
2023-06-16T07:07:05.890Z,94.98
2023-06-16T07:08:05.841Z,92.35
2023-06-16T07:09:08.652Z,94.49
2023-06-16T07:10:05.834Z,90.19
2023-06-16T07:11:05.867Z,86.81
2023-06-16T07:12:05.819Z,86.05
2023-06-16T07:13:05.820Z,82.78
2023-06-16T07:14:05.856Z,82.11
2023-06-16T07:15:05.823Z,81.96
2023-06-16T07:16:05.837Z,81.81
2023-06-16T07:17:05.844Z,83.13
2023-06-16T07:18:05.916Z,81.75
2023-06-16T07:19:05.786Z,76.99
2023-06-16T07:20:05.804Z,71.90
2023-06-16T07:21:05.778Z,63.80
2023-06-16T07:22:05.760Z,59.62
2023-06-16T07:23:07.692Z,56.27
2023-06-16T07:24:05.770Z,53.59
2023-06-16T07:25:05.736Z,47.67
2023-06-16T07:26:05.728Z,43.09
2023-06-16T07:27:05.718Z,36.81
2023-06-16T07:28:05.713Z,34.98
2023-06-16T07:29:07.852Z,33.39
2023-06-16T07:30:05.711Z,36.82
2023-06-16T07:31:05.702Z,32.97
2023-06-16T07:32:05.724Z,29.56
2023-06-16T07:33:05.830Z,26.77
2023-06-16T07:34:05.744Z,29.20
2023-06-16T07:35:05.734Z,35.27
2023-06-16T07:36:05.735Z,38.59
2023-06-16T07:37:05.737Z,41.83
2023-06-16T07:38:05.736Z,44.73
2023-06-16T07:39:05.752Z,45.34
2023-06-16T07:40:05.951Z,51.72
2023-06-16T07:41:05.854Z,53.40
2023-06-16T07:42:05.933Z,55.76
2023-06-16T07:43:05.976Z,54.00
2023-06-16T07:44:06.009Z,53.95
2023-06-16T07:45:06.048Z,54.13
2023-06-16T07:46:06.127Z,58.84
2023-06-16T07:47:07.413Z,59.18
2023-06-16T07:48:06.240Z,58.41
2023-06-16T07:49:06.223Z,59.96
2023-06-16T07:50:06.264Z,58.09
2023-06-16T07:51:06.299Z,59.64
2023-06-16T07:52:07.242Z,59.67
2023-06-16T07:53:06.511Z,63.37
2023-06-16T07:54:07.159Z,67.81
2023-06-16T07:55:06.509Z,65.04
2023-06-16T07:56:06.534Z,65.06
2023-06-16T07:57:06.585Z,69.81
2023-06-16T07:58:06.580Z,69.26
2023-06-16T07:59:06.610Z,68.73
2023-06-16T08:00:06.643Z,68.47
2023-06-16T08:01:06.872Z,66.27
2023-06-16T08:02:06.713Z,65.08
2023-06-16T08:03:06.789Z,62.51
2023-06-16T08:04:06.901Z,72.43
2023-06-16T08:05:06.794Z,74.74
2023-06-16T08:06:06.783Z,72.72
2023-06-16T08:07:06.812Z,68.59
2023-06-16T08:08:06.852Z,65.81
2023-06-16T08:09:07.772Z,67.64
2023-06-16T08:10:06.941Z,63.66
2023-06-16T08:11:06.941Z,49.46
2023-06-16T08:12:06.943Z,51.64
2023-06-16T08:13:06.953Z,43.01
2023-06-16T08:14:06.951Z,43.54
2023-06-16T08:15:06.977Z,50.47
2023-06-16T08:16:07.038Z,62.14
2023-06-16T08:17:06.993Z,51.21
2023-06-16T08:18:07.062Z,60.97
2023-06-16T08:19:06.969Z,60.15
2023-06-16T08:20:06.986Z,52.69
2023-06-16T08:21:08.996Z,49.33
2023-06-16T08:22:07.101Z,32.38
2023-06-16T08:23:07.099Z,25.73
2023-06-16T08:24:07.154Z,30.52
2023-06-16T08:25:07.108Z,34.67
2023-06-16T08:26:07.131Z,27.99
2023-06-16T08:27:07.120Z,26.65
2023-06-16T08:28:07.157Z,25.00
2023-06-16T08:29:07.198Z,26.34
2023-06-16T08:30:07.216Z,25.71
2023-06-16T08:31:07.248Z,32.02
2023-06-16T08:32:07.300Z,28.32
2023-06-16T08:33:07.377Z,30.62
2023-06-16T08:34:07.413Z,29.68
2023-06-16T08:35:07.758Z,26.38
2023-06-16T08:36:07.486Z,25.24
2023-06-16T08:37:24.693Z,19.65
2023-06-16T08:38:08.460Z,22.48
2023-06-16T08:39:07.455Z,16.45
2023-06-16T08:40:07.441Z,17.10
2023-06-16T08:41:07.435Z,12.34
2023-06-16T08:42:07.434Z,12.18
2023-06-16T08:43:07.423Z,22.44
2023-06-16T08:44:07.432Z,25.00
2023-06-16T08:45:07.432Z,25.00
2023-06-16T08:46:07.427Z,29.44
2023-06-16T08:47:07.403Z,28.16
2023-06-16T08:48:07.431Z,24.86
2023-06-16T08:49:07.391Z,25.32
2023-06-16T08:50:07.381Z,26.16
2023-06-16T08:51:07.389Z,25.13
2023-06-16T08:52:07.427Z,25.98
2023-06-16T08:53:07.788Z,25.00
2023-06-16T08:54:07.352Z,26.01
2023-06-16T08:55:07.345Z,25.00
2023-06-16T08:56:07.367Z,25.03
2023-06-16T08:57:07.333Z,25.00
2023-06-16T08:58:07.345Z,27.93
2023-06-16T08:59:07.314Z,26.11
2023-06-16T09:00:07.381Z,27.54
2023-06-16T09:01:07.311Z,27.26
2023-06-16T09:02:08.296Z,28.04
2023-06-16T09:03:07.323Z,24.74
2023-06-16T09:04:07.399Z,26.62
2023-06-16T09:05:07.284Z,26.00
2023-06-16T09:06:07.271Z,28.80
2023-06-16T09:07:07.271Z,27.12
2023-06-16T09:08:07.270Z,25.00
2023-06-16T09:09:07.337Z,26.51
2023-06-16T09:10:07.246Z,28.10
2023-06-16T09:11:07.774Z,28.40
2023-06-16T09:12:07.241Z,27.98
2023-06-16T09:13:07.242Z,28.27
2023-06-16T09:14:07.299Z,30.33
2023-06-16T09:15:07.354Z,34.06
2023-06-16T09:16:07.450Z,31.24
2023-06-16T09:17:07.575Z,28.90
2023-06-16T09:18:07.648Z,31.47
2023-06-16T09:19:07.593Z,29.40
2023-06-16T09:20:07.636Z,31.94
2023-06-16T09:21:07.683Z,29.67
2023-06-16T09:22:07.743Z,33.42
2023-06-16T09:23:07.741Z,32.99
2023-06-16T09:24:07.871Z,30.94
2023-06-16T09:25:07.763Z,33.67
2023-06-16T09:26:07.798Z,37.63
2023-06-16T09:27:07.781Z,36.55
2023-06-16T09:28:07.765Z,34.50
2023-06-16T09:29:07.767Z,37.59
2023-06-16T09:30:07.803Z,38.30
2023-06-16T09:31:12.489Z,38.22
2023-06-16T09:32:08.832Z,38.37
2023-06-16T09:33:07.826Z,38.51
2023-06-16T09:34:07.810Z,37.34
2023-06-16T09:35:07.788Z,34.14
2023-06-16T09:36:07.797Z,32.26
2023-06-16T09:37:07.973Z,28.58
2023-06-16T09:38:07.763Z,27.15
2023-06-16T09:39:07.752Z,25.55
2023-06-16T09:40:07.761Z,26.66
2023-06-16T09:41:07.774Z,26.43
2023-06-16T09:42:07.806Z,25.84
2023-06-16T09:43:07.906Z,25.00
2023-06-16T09:44:07.860Z,26.39
2023-06-16T09:45:07.883Z,30.01
2023-06-16T09:46:07.930Z,34.76
2023-06-16T09:47:07.974Z,32.25
2023-06-16T09:48:08.059Z,30.33
2023-06-16T09:49:07.952Z,30.70
2023-06-16T09:50:07.958Z,27.98
2023-06-16T09:51:07.986Z,27.04
2023-06-16T09:52:08.087Z,25.00
2023-06-16T09:53:08.117Z,24.04
2023-06-16T09:54:08.109Z,27.84
2023-06-16T09:55:08.126Z,31.26
2023-06-16T09:56:08.135Z,34.95
2023-06-16T09:57:08.122Z,38.55
2023-06-16T09:58:08.264Z,36.09
2023-06-16T09:59:08.222Z,34.60
2023-06-16T10:00:08.228Z,38.97
2023-06-16T10:01:08.263Z,38.82
2023-06-16T10:02:08.296Z,37.53
2023-06-16T10:03:08.667Z,41.00
2023-06-16T10:04:08.362Z,39.75
2023-06-16T10:05:08.355Z,40.54
2023-06-16T10:06:10.465Z,41.19
2023-06-16T10:07:08.373Z,44.39
2023-06-16T10:08:08.787Z,44.29
2023-06-16T10:09:08.360Z,49.44
2023-06-16T10:10:08.344Z,51.65
2023-06-16T10:11:08.356Z,57.15
2023-06-16T10:12:08.358Z,67.98
2023-06-16T10:13:08.411Z,76.70
2023-06-16T10:14:08.330Z,85.68
2023-06-16T10:15:08.316Z,94.10
2023-06-16T10:16:08.319Z,102.43
2023-06-16T10:17:08.369Z,110.50
2023-06-16T10:18:11.890Z,118.59
2023-06-16T10:19:09.384Z,118.78
2023-06-16T10:20:08.286Z,120.15
2023-06-16T10:21:08.281Z,123.34
2023-06-16T10:22:12.517Z,128.49
2023-06-16T10:23:08.307Z,119.23
2023-06-16T10:24:08.291Z,121.61
2023-06-16T10:25:08.264Z,126.62
2023-06-16T10:26:08.259Z,134.27
2023-06-16T10:27:08.249Z,143.92
2023-06-16T10:28:08.285Z,146.96
2023-06-16T10:29:08.234Z,148.69
2023-06-16T10:30:08.233Z,151.16
2023-06-16T10:31:08.227Z,153.01
2023-06-16T10:32:08.208Z,153.63
2023-06-16T10:33:08.215Z,154.31
2023-06-16T10:34:08.207Z,155.36
2023-06-16T10:35:08.194Z,154.06
2023-06-16T10:36:21.584Z,141.06
2023-06-16T10:37:09.242Z,126.72
2023-06-16T10:38:08.173Z,112.77
2023-06-16T10:39:08.168Z,106.93
2023-06-16T10:40:08.158Z,99.64
2023-06-16T10:41:08.199Z,94.02
2023-06-16T10:42:08.161Z,92.31
2023-06-16T10:43:08.152Z,91.61
2023-06-16T10:44:08.133Z,95.23
2023-06-16T10:45:08.119Z,97.03
2023-06-16T10:46:08.122Z,98.02
2023-06-16T10:47:08.271Z,101.98
2023-06-16T10:48:08.756Z,102.60
2023-06-16T10:49:08.746Z,105.43
2023-06-16T10:50:08.089Z,109.82
2023-06-16T10:51:08.141Z,112.75
2023-06-16T10:52:08.069Z,115.28
2023-06-16T10:53:08.103Z,117.74
2023-06-16T10:54:08.059Z,121.29
2023-06-16T10:55:08.324Z,123.14
2023-06-16T10:56:08.070Z,124.98
2023-06-16T10:58:08.142Z,131.02
2023-06-16T10:59:08.136Z,133.44
2023-06-16T11:00:08.215Z,136.33
2023-06-16T11:01:08.173Z,137.55
2023-06-16T11:02:08.112Z,140.47
2023-06-16T11:03:08.176Z,143.65
2023-06-16T11:04:08.153Z,145.63
2023-06-16T11:05:08.090Z,147.77
2023-06-16T11:06:08.082Z,149.52
2023-06-16T11:07:14.052Z,152.18
2023-06-16T11:08:09.106Z,152.30
2023-06-16T11:09:08.063Z,153.00
2023-06-16T11:10:08.129Z,154.39
2023-06-16T11:11:08.050Z,157.03
2023-06-16T11:12:08.827Z,161.35
2023-06-16T11:13:08.029Z,163.42
2023-06-16T11:14:08.108Z,164.45
2023-06-16T11:15:10.996Z,166.00
2023-06-16T11:16:08.044Z,166.10
2023-06-16T11:17:08.015Z,166.56
2023-06-16T11:18:08.005Z,167.83
2023-06-16T11:19:07.999Z,169.62
2023-06-16T11:20:08.002Z,172.60
2023-06-16T11:21:10.568Z,175.30
2023-06-16T11:22:07.978Z,175.36
2023-06-16T11:23:07.978Z,175.62
2023-06-16T11:24:07.994Z,176.53
2023-06-16T11:25:07.961Z,177.97
2023-06-16T11:26:07.961Z,181.76
2023-06-16T11:27:07.952Z,182.01
2023-06-16T11:28:07.936Z,183.80
2023-06-16T11:29:07.926Z,184.13
2023-06-16T11:30:07.934Z,184.83
2023-06-16T11:31:07.986Z,186.42
2023-06-16T11:32:07.923Z,187.40
2023-06-16T11:33:07.994Z,188.28
2023-06-16T11:34:08.828Z,188.25
2023-06-16T11:35:07.942Z,189.99
2023-06-16T11:36:07.889Z,189.42
2023-06-16T11:37:07.874Z,191.59
2023-06-16T11:38:07.875Z,192.03
2023-06-16T11:39:07.866Z,192.92
2023-06-16T11:40:07.857Z,192.87
2023-06-16T11:41:11.904Z,192.73
2023-06-16T11:42:07.836Z,192.87
2023-06-16T11:43:07.831Z,193.31
2023-06-16T11:44:07.881Z,193.90
2023-06-16T11:45:07.819Z,194.98
2023-06-16T11:46:07.816Z,197.77
2023-06-16T11:47:07.859Z,197.40
2023-06-16T11:48:07.906Z,198.50
2023-06-16T11:49:07.789Z,199.60
2023-06-16T11:50:07.782Z,200.01
2023-06-16T11:51:07.791Z,200.24
2023-06-16T11:52:07.837Z,200.54
2023-06-16T11:53:07.775Z,201.56
2023-06-16T11:54:07.753Z,201.27
2023-06-16T11:55:07.750Z,202.16
2023-06-16T11:56:07.739Z,202.76
2023-06-16T11:57:07.746Z,203.38
2023-06-16T11:58:07.758Z,203.28
2023-06-16T11:59:07.723Z,204.28
2023-06-16T12:00:07.756Z,205.24
2023-06-16T12:01:07.743Z,205.16
2023-06-16T12:02:08.262Z,205.66
2023-06-16T12:03:07.766Z,206.27
2023-06-16T12:04:07.702Z,206.31
2023-06-16T12:05:07.917Z,206.86
2023-06-16T12:06:09.179Z,207.32
2023-06-16T12:07:07.687Z,208.84
2023-06-16T12:08:07.673Z,207.89
2023-06-16T12:09:07.664Z,208.76
2023-06-16T12:10:07.649Z,208.39
2023-06-16T12:11:07.697Z,209.48
2023-06-16T12:12:07.632Z,209.28
2023-06-16T12:13:07.642Z,208.88
2023-06-16T12:14:07.674Z,210.02
2023-06-16T12:15:07.635Z,210.83
2023-06-16T12:16:07.602Z,209.87
2023-06-16T12:17:07.637Z,210.61
2023-06-16T12:18:07.643Z,209.95
2023-06-16T12:19:07.580Z,210.52
2023-06-16T12:20:07.588Z,211.41
2023-06-16T12:21:07.606Z,210.82
2023-06-16T12:22:07.607Z,210.63
2023-06-16T12:23:07.574Z,211.34
2023-06-16T12:24:07.584Z,210.92
2023-06-16T12:25:07.551Z,211.37
2023-06-16T12:26:07.599Z,212.12
2023-06-16T12:27:07.522Z,211.86
2023-06-16T12:28:07.512Z,212.60
2023-06-16T12:29:07.511Z,212.14
2023-06-16T12:30:07.586Z,212.83
2023-06-16T12:31:07.515Z,213.48
2023-06-16T12:32:07.487Z,212.56
2023-06-16T12:33:07.547Z,213.73
2023-06-16T12:34:07.474Z,215.15
2023-06-16T12:35:07.470Z,213.88
2023-06-16T12:36:07.462Z,213.86